Time;durP1;ratioP1;P1;durP2;ratioP2;P2;SDS_P1;SDS_P2;PMS_P1;PMS_P2;Temp;Humidity;BMP_temperature;BMP_pressure;BME280_temperature;BME280_humidity;BME280_pressure;Samples;Min_cycle;Max_cycle;Signal;HPM_P1;HPM_P2
2021/05/17 00:00:09;;;;;;;1.73;1.17;;;;;;;12.13;62.62;99654.22;692208;28;23546;-67
2021/05/17 00:00:34;;;;;;;1.30;1.30;;;;;;;12.13;62.67;99657.78;689775;28;60240;-65
2021/05/17 00:00:56;;;;;;;1.40;1.40;;;;;;;12.14;62.54;99650.50;692168;28;946;-66
2021/05/17 00:01:17;;;;;;;1.30;1.20;;;;;;;12.13;62.77;99654.22;690496;28;42866;-65
2021/05/17 00:01:38;;;;;;;1.00;1.00;;;;;;;12.11;62.38;99657.16;691531;28;21535;-66
2021/05/17 00:02:00;;;;;;;0.90;0.90;;;;;;;12.11;62.89;99651.72;690937;28;45310;-65
2021/05/17 00:02:22;;;;;;;1.40;1.30;;;;;;;12.10;62.56;99655.50;691250;28;21553;-67
2021/05/17 00:02:43;;;;;;;1.30;1.30;;;;;;;12.09;63.04;99651.13;690329;28;46353;-65
2021/05/17 00:03:05;;;;;;;1.67;1.30;;;;;;;12.08;62.71;99649.47;690347;28;45551;-65
2021/05/17 00:03:27;;;;;;;1.40;1.30;;;;;;;12.10;62.69;99649.25;692004;28;12889;-65
2021/05/17 00:03:49;;;;;;;1.13;1.13;;;;;;;12.09;62.82;99645.72;690314;28;44456;-66
2021/05/17 00:04:12;;;;;;;1.38;1.27;;;;;;;12.08;63.03;99647.59;690553;28;44432;-66
2021/05/17 00:04:34;;;;;;;1.10;1.10;;;;;;;12.08;62.97;99646.75;688487;28;92289;-66
2021/05/17 00:04:56;;;;;;;1.20;1.20;;;;;;;12.07;62.70;99654.03;690627;28;44447;-66
2021/05/17 00:05:18;;;;;;;1.20;1.20;;;;;;;12.05;63.00;99650.72;691570;28;21554;-65
2021/05/17 00:05:40;;;;;;;1.10;1.10;;;;;;;12.03;62.73;99650.09;689766;28;46263;-66
2021/05/17 00:06:01;;;;;;;2.83;1.20;;;;;;;12.04;63.17;99646.34;689766;28;47469;-65
2021/05/17 00:06:23;;;;;;;2.35;1.20;;;;;;;12.04;62.87;99650.94;690376;28;22488;-66
2021/05/17 00:06:45;;;;;;;1.20;1.10;;;;;;;12.03;62.73;99650.09;690525;28;45266;-65
2021/05/17 00:07:08;;;;;;;1.10;1.10;;;;;;;12.03;63.13;99649.28;690730;28;45293;-66
2021/05/17 00:07:29;;;;;;;1.30;1.30;;;;;;;12.04;63.07;99650.94;689854;28;67569;-65
2021/05/17 00:07:50;;;;;;;1.40;1.30;;;;;;;12.02;62.79;99653.88;691007;28;22391;-66
2021/05/17 00:08:12;;;;;;;1.20;1.20;;;;;;;12.00;62.83;99641.59;691138;28;22527;-66
2021/05/17 00:08:34;;;;;;;1.20;1.20;;;;;;;12.00;63.17;99649.69;690540;28;45278;-67
2021/05/17 00:08:55;;;;;;;1.50;1.40;;;;;;;12.01;63.02;99654.06;690244;28;47528;-65
2021/05/17 00:09:16;;;;;;;1.30;1.30;;;;;;;12.02;62.91;99655.72;691165;28;22428;-66
2021/05/17 00:09:38;;;;;;;1.20;1.20;;;;;;;12.02;63.39;99648.44;691344;28;23617;-65
2021/05/17 00:10:00;;;;;;;1.30;1.30;;;;;;;12.02;62.87;99651.16;690350;28;44210;-66
2021/05/17 00:10:21;;;;;;;1.48;1.23;;;;;;;12.01;63.12;99648.66;690724;28;44530;-66
2021/05/17 00:10:43;;;;;;;1.35;1.13;;;;;;;12.01;62.93;99646.78;691172;28;21532;-65
2021/05/17 00:11:04;;;;;;;1.17;1.17;;;;;;;12.03;63.17;99651.97;691124;28;24435;-65
2021/05/17 00:11:26;;;;;;;1.25;1.25;;;;;;;12.03;63.14;99654.69;690576;28;46343;-66
2021/05/17 00:11:47;;;;;;;1.33;1.33;;;;;;;12.03;63.26;99647.38;691813;28;15442;-66
2021/05/17 00:12:09;;;;;;;1.20;1.20;;;;;;;12.04;63.05;99648.25;690765;28;44670;-65
2021/05/17 00:12:31;;;;;;;1.10;1.10;;;;;;;12.02;62.99;99648.44;690315;28;47485;-65
2021/05/17 00:12:53;;;;;;;1.27;1.23;;;;;;;12.04;62.69;99653.66;690087;28;46966;-66
2021/05/17 00:13:14;;;;;;;1.23;1.23;;;;;;;12.03;62.64;99650.09;691411;28;22238;-66
2021/05/17 00:13:35;;;;;;;1.20;1.20;;;;;;;12.02;62.99;99640.34;690713;28;46378;-66
2021/05/17 00:13:56;;;;;;;1.40;1.30;;;;;;;12.00;63.15;99645.09;691664;28;24249;-66
2021/05/17 00:14:18;;;;;;;1.30;1.30;;;;;;;12.00;63.10;99645.09;691585;28;21506;-65
2021/05/17 00:14:40;;;;;;;1.17;1.17;;;;;;;12.00;62.88;99644.28;691017;28;38845;-66
2021/05/17 00:15:05;;;;;;;1.10;1.10;;;;;;;11.99;63.05;99643.47;692509;28;46347;-66
2021/05/17 00:15:26;;;;;;;1.20;1.20;;;;;;;11.99;63.07;99638.06;691023;28;114802;-66
2021/05/17 00:15:48;;;;;;;1.33;1.23;;;;;;;11.99;62.92;99638.06;694051;28;22393;-65
2021/05/17 00:16:09;;;;;;;1.10;1.10;;;;;;;11.99;62.93;99643.47;693861;28;4270;-66
2021/05/17 00:16:31;;;;;;;1.15;1.15;;;;;;;11.98;63.21;99641.78;693119;28;22330;-65
2021/05/17 00:16:53;;;;;;;1.20;1.20;;;;;;;11.98;62.86;99639.09;691997;28;45338;-66
2021/05/17 00:17:14;;;;;;;1.20;1.20;;;;;;;11.97;62.94;99639.31;693745;28;21561;-66
2021/05/17 00:17:36;;;;;;;1.20;1.20;;;;;;;11.95;63.22;99633.28;693878;28;31804;-65
2021/05/17 00:17:57;;;;;;;1.70;1.25;;;;;;;11.92;62.90;99629.13;692939;28;42673;-66
2021/05/17 00:18:20;;;;;;;1.35;1.17;;;;;;;11.96;63.19;99641.19;693818;28;16209;-66
2021/05/17 00:18:41;;;;;;;1.55;1.45;;;;;;;11.97;63.05;99640.13;693087;28;42287;-66
2021/05/17 00:19:03;;;;;;;1.40;1.30;;;;;;;11.97;62.98;99639.31;692593;28;47585;-65
2021/05/17 00:19:24;;;;;;;1.40;1.27;;;;;;;11.97;63.31;99642.00;690352;28;46269;-66
2021/05/17 00:19:45;;;;;;;1.38;1.27;;;;;;;11.96;62.99;99637.63;691100;28;21568;-66
2021/05/17 00:20:08;;;;;;;1.40;1.30;;;;;;;11.96;62.80;99641.19;692350;28;22413;-66
2021/05/17 00:20:30;;;;;;;1.20;1.20;;;;;;;11.95;63.26;99636.81;690983;28;69486;-66
2021/05/17 00:20:52;;;;;;;1.20;1.10;;;;;;;11.97;63.26;99636.59;689509;28;22533;-66
2021/05/17 00:21:13;;;;;;;1.85;1.30;;;;;;;11.96;63.16;99637.63;689257;28;45227;-66
2021/05/17 00:21:41;;;;;;;1.33;1.23;;;;;;;11.96;63.33;99641.19;688533;28;60877;-66
2021/05/17 00:22:03;;;;;;;1.50;1.20;;;;;;;11.93;63.02;99641.59;691376;28;1899;-66
2021/05/17 00:22:25;;;;;;;2.97;1.50;;;;;;;11.94;63.35;99635.13;690945;28;35663;-65
2021/05/17 00:22:53;;;;;;;1.27;1.25;;;;;;;11.93;63.48;99638.06;689872;28;61809;-65
2021/05/17 00:23:14;;;;;;;1.42;1.33;;;;;;;11.92;63.19;99645.34;691194;28;23526;-65
2021/05/17 00:23:36;;;;;;;4.30;1.50;;;;;;;11.93;63.28;99635.34;691018;28;36815;-64
2021/05/17 00:23:57;;;;;;;2.67;1.30;;;;;;;11.93;63.60;99641.59;691792;28;10148;-66
2021/05/17 00:24:19;;;;;;;2.05;1.30;;;;;;;11.93;63.60;99641.59;690880;28;46472;-66
2021/05/17 00:24:41;;;;;;;2.50;1.30;;;;;;;11.92;63.19;99639.09;690312;28;36797;-66
2021/05/17 00:25:07;;;;;;;1.20;1.20;;;;;;;11.89;63.28;99635.75;690940;28;37941;-63
2021/05/17 00:25:28;;;;;;;1.30;1.30;;;;;;;11.89;63.48;99634.91;690420;28;46262;-65
2021/05/17 00:25:50;;;;;;;2.90;1.30;;;;;;;11.88;63.69;99636.81;690486;28;46632;-66
2021/05/17 00:26:12;;;;;;;2.70;1.20;;;;;;;11.86;63.83;99636.16;691055;28;22508;-66
2021/05/17 00:26:33;;;;;;;1.10;1.10;;;;;;;11.89;63.74;99637.63;690544;28;44384;-65
2021/05/17 00:26:55;;;;;;;2.50;1.30;;;;;;;11.87;63.67;99643.25;691694;28;22252;-65
2021/05/17 00:27:17;;;;;;;1.30;1.30;;;;;;;11.85;63.50;99639.94;691253;28;46293;-66
2021/05/17 00:27:38;;;;;;;1.20;1.20;;;;;;;11.85;63.86;99645.34;691524;28;45244;-66
2021/05/17 00:27:59;;;;;;;1.10;1.10;;;;;;;11.85;63.70;99639.94;692737;28;22381;-66
2021/05/17 00:28:20;;;;;;;1.15;1.08;;;;;;;11.85;63.63;99639.94;692536;28;21773;-66
2021/05/17 00:28:42;;;;;;;1.40;1.30;;;;;;;11.85;63.47;99639.09;691948;28;44400;-66
2021/05/17 00:29:05;;;;;;;1.25;1.25;;;;;;;11.83;63.83;99635.75;691518;28;1080;-66
2021/05/17 00:29:26;;;;;;;1.33;1.10;;;;;;;11.83;63.69;99642.03;690920;28;37755;-66
2021/05/17 00:29:49;;;;;;;1.60;1.20;;;;;;;11.80;63.74;99638.91;691356;28;46382;-65
2021/05/17 00:30:11;;;;;;;1.30;1.20;;;;;;;11.81;63.70;99643.28;691005;28;44385;-66
2021/05/17 00:30:33;;;;;;;1.80;1.10;;;;;;;11.79;63.86;99638.06;690694;28;45260;-66
2021/05/17 00:30:54;;;;;;;1.40;1.30;;;;;;;11.80;64.20;99641.59;691333;28;44385;-66
2021/05/17 00:31:16;;;;;;;1.67;1.38;;;;;;;11.78;64.08;99644.50;691296;28;22393;-65
2021/05/17 00:31:38;;;;;;;1.45;1.30;;;;;;;11.79;63.69;99639.97;690026;28;46346;-66
2021/05/17 00:31:59;;;;;;;1.20;1.20;;;;;;;11.78;64.19;99643.69;691807;28;12291;-66
2021/05/17 00:32:21;;;;;;;1.20;1.20;;;;;;;11.78;63.89;99639.09;691261;28;34229;-66
2021/05/17 00:32:42;;;;;;;1.02;1.02;;;;;;;11.77;64.08;99642.03;691303;28;23457;-65
2021/05/17 00:33:04;;;;;;;1.77;1.20;;;;;;;11.77;64.14;99637.47;691907;28;3017;-66
2021/05/17 00:33:25;;;;;;;1.80;1.20;;;;;;;11.77;64.18;99636.59;691316;28;45836;-66
2021/05/17 00:33:47;;;;;;;1.20;1.20;;;;;;;11.75;64.13;99636.81;688390;28;45289;-65
2021/05/17 00:34:09;;;;;;;1.25;1.25;;;;;;;11.76;64.09;99643.91;689952;28;23472;-66
2021/05/17 00:34:31;;;;;;;1.33;1.33;;;;;;;11.75;63.80;99644.94;688772;28;46235;-66
2021/05/17 00:34:53;;;;;;;1.38;1.27;;;;;;;11.75;63.84;99642.22;688503;28;46245;-65
2021/05/17 00:35:15;;;;;;;1.67;1.58;;;;;;;11.75;63.68;99641.41;689144;28;44404;-66
2021/05/17 00:35:37;;;;;;;1.20;1.20;;;;;;;11.75;63.81;99644.13;690756;28;44385;-66
2021/05/17 00:35:58;;;;;;;1.10;1.10;;;;;;;11.76;64.11;99643.09;692231;28;44360;-65
2021/05/17 00:36:19;;;;;;;1.38;1.30;;;;;;;11.74;63.79;99643.28;693420;28;6210;-66
2021/05/17 00:36:41;;;;;;;1.33;1.33;;;;;;;11.75;63.93;99644.94;690193;28;45389;-66
2021/05/17 00:37:02;;;;;;;1.33;1.33;;;;;;;11.74;63.64;99640.59;691263;28;23058;-66
2021/05/17 00:37:25;;;;;;;1.30;1.30;;;;;;;11.75;63.75;99646.81;691976;28;16377;-65
2021/05/17 00:37:46;;;;;;;1.30;1.30;;;;;;;11.74;63.61;99643.28;690007;28;56299;-65
2021/05/17 00:38:08;;;;;;;1.15;1.15;;;;;;;11.73;63.75;99642.44;690777;28;22382;-66
2021/05/17 00:38:29;;;;;;;1.15;1.15;;;;;;;11.72;64.01;99640.81;690743;28;37432;-66
2021/05/17 00:38:51;;;;;;;1.25;1.25;;;;;;;11.71;63.88;99635.59;691544;28;19540;-65
2021/05/17 00:39:13;;;;;;;1.20;1.20;;;;;;;11.67;63.74;99639.75;690921;28;44468;-65
2021/05/17 00:39:34;;;;;;;1.30;1.20;;;;;;;11.67;64.32;99646.00;690349;28;44431;-65
2021/05/17 00:39:56;;;;;;;1.33;1.25;;;;;;;11.67;64.00;99642.47;690858;28;21530;-65
2021/05/17 00:40:20;;;;;;;1.77;1.25;;;;;;;11.65;64.17;99645.38;690265;28;46459;-66
2021/05/17 00:40:41;;;;;;;1.50;1.40;;;;;;;11.64;64.20;99642.88;688826;28;90407;-67
2021/05/17 00:41:02;;;;;;;1.20;1.20;;;;;;;11.64;64.05;99643.72;691067;28;45238;-66
2021/05/17 00:41:24;;;;;;;1.17;1.17;;;;;;;11.63;64.08;99647.47;691407;28;21560;-66
2021/05/17 00:41:46;;;;;;;1.17;1.17;;;;;;;11.61;64.22;99641.44;690232;28;45259;-67
2021/05/17 00:42:07;;;;;;;1.35;1.25;;;;;;;11.62;64.04;99644.97;690323;28;46369;-66
2021/05/17 00:42:29;;;;;;;1.50;1.40;;;;;;;11.61;63.93;99649.53;691219;28;21325;-66
2021/05/17 00:42:52;;;;;;;1.40;1.30;;;;;;;11.59;64.16;99651.63;690300;28;45796;-66
2021/05/17 00:43:14;;;;;;;1.50;1.40;;;;;;;11.59;64.11;99648.94;689917;28;45477;-66
2021/05/17 00:43:36;;;;;;;1.40;1.30;;;;;;;11.60;64.04;99649.75;689710;28;65792;-66
2021/05/17 00:43:58;;;;;;;1.25;1.25;;;;;;;11.58;64.53;99655.38;690050;28;45438;-67
2021/05/17 00:44:19;;;;;;;1.20;1.20;;;;;;;11.59;64.20;99650.81;690171;28;46314;-67
2021/05/17 00:44:41;;;;;;;1.20;1.20;;;;;;;11.58;64.17;99649.13;690622;28;24453;-66
2021/05/17 00:45:04;;;;;;;1.30;1.30;;;;;;;11.58;64.30;99646.44;690518;28;46413;-67
2021/05/17 00:45:26;;;;;;;1.20;1.20;;;;;;;11.56;64.66;99648.53;690122;28;47395;-67
2021/05/17 00:45:48;;;;;;;2.03;1.20;;;;;;;11.55;64.61;99644.97;690076;28;56397;-66
2021/05/17 00:46:10;;;;;;;2.08;1.23;;;;;;;11.55;64.56;99650.38;691333;28;4315;-66
2021/05/17 00:46:33;;;;;;;1.10;1.10;;;;;;;11.54;64.23;99646.84;690207;28;22406;-67
2021/05/17 00:46:54;;;;;;;1.20;1.20;;;;;;;11.53;64.45;99647.88;690743;28;44227;-66
2021/05/17 00:47:17;;;;;;;1.13;1.10;;;;;;;11.53;64.48;99647.88;689049;28;67692;-66
2021/05/17 00:47:42;;;;;;;1.20;1.10;;;;;;;11.53;64.37;99650.59;688122;28;69441;-66
2021/05/17 00:48:04;;;;;;;1.15;1.15;;;;;;;11.56;64.31;99648.53;686582;28;67280;-66
2021/05/17 00:48:26;;;;;;;1.30;1.30;;;;;;;11.53;64.84;99647.88;686878;28;69218;-65
2021/05/17 00:48:48;;;;;;;1.20;1.20;;;;;;;11.53;64.80;99647.88;687459;28;46391;-67
2021/05/17 00:49:09;;;;;;;1.30;1.30;;;;;;;11.54;64.61;99640.63;688567;28;22408;-66
2021/05/17 00:49:31;;;;;;;1.45;1.35;;;;;;;11.55;64.87;99639.56;688916;28;44403;-66
2021/05/17 00:49:53;;;;;;;1.23;1.23;;;;;;;11.55;64.85;99639.56;689089;28;43726;-65
2021/05/17 00:50:17;;;;;;;1.30;1.30;;;;;;;11.56;64.76;99643.13;688847;28;23473;-66
2021/05/17 00:50:39;;;;;;;1.30;1.30;;;;;;;11.57;64.46;99639.34;683886;28;92098;-66
2021/05/17 00:51:01;;;;;;;1.73;1.40;;;;;;;11.56;64.46;99633.13;685678;28;69475;-65
2021/05/17 00:51:24;;;;;;;1.77;1.25;;;;;;;11.56;64.72;99638.53;687135;28;44371;-66
2021/05/17 00:51:45;;;;;;;1.70;1.30;;;;;;;11.58;64.87;99636.44;685703;28;45274;-66
2021/05/17 00:52:07;;;;;;;1.30;1.30;;;;;;;11.56;64.76;99635.81;685146;28;11007;-66
2021/05/17 00:52:30;;;;;;;1.58;1.20;;;;;;;11.59;64.25;99638.09;684275;28;69444;-65
2021/05/17 00:52:52;;;;;;;1.33;1.10;;;;;;;11.59;64.10;99642.69;687674;28;45450;-66
2021/05/17 00:53:13;;;;;;;1.20;1.20;;;;;;;11.58;64.62;99635.63;686639;28;67260;-65
2021/05/17 00:53:36;;;;;;;1.25;1.25;;;;;;;11.58;64.37;99641.84;689396;28;14068;-66
2021/05/17 00:53:57;;;;;;;1.50;1.40;;;;;;;11.59;64.51;99637.28;689604;28;44401;-66
2021/05/17 00:54:18;;;;;;;1.30;1.30;;;;;;;11.60;64.23;99645.19;691126;28;20027;-66
2021/05/17 00:54:40;;;;;;;1.23;1.23;;;;;;;11.61;64.23;99640.59;692361;28;22505;-65
2021/05/17 00:55:02;;;;;;;1.17;1.17;;;;;;;11.60;64.21;99642.50;691695;28;40338;-66
2021/05/17 00:55:25;;;;;;;1.13;1.13;;;;;;;11.60;64.25;99636.22;690319;28;70428;-66
2021/05/17 00:55:46;;;;;;;1.25;1.25;;;;;;;11.60;64.67;99636.22;688077;28;66835;-66
2021/05/17 00:56:10;;;;;;;1.38;1.38;;;;;;;11.60;64.44;99642.50;687415;28;4241;-66
2021/05/17 00:56:35;;;;;;;1.40;1.40;;;;;;;11.59;64.39;99640.81;683775;28;138096;-66
2021/05/17 00:56:57;;;;;;;1.30;1.30;;;;;;;11.61;64.68;99633.31;688095;28;23514;-66
2021/05/17 00:57:18;;;;;;;1.33;1.23;;;;;;;11.62;64.55;99636.88;684806;28;46387;-66
2021/05/17 00:57:40;;;;;;;1.40;1.30;;;;;;;11.63;64.73;99646.63;687033;28;23489;-66
2021/05/17 00:58:02;;;;;;;1.20;1.20;;;;;;;11.63;64.25;99641.22;688479;28;46368;-67
2021/05/17 00:58:23;;;;;;;1.35;1.33;;;;;;;11.63;64.63;99635.81;690129;28;44397;-66
2021/05/17 00:58:45;;;;;;;2.58;1.52;;;;;;;11.63;64.61;99643.91;689950;28;44180;-66
2021/05/17 00:59:07;;;;;;;1.42;1.33;;;;;;;11.64;64.72;99637.47;691633;28;22386;-67
2021/05/17 00:59:28;;;;;;;1.15;1.15;;;;;;;11.64;64.66;99640.19;690874;28;47957;-66
2021/05/17 00:59:50;;;;;;;2.00;1.35;;;;;;;11.64;64.26;99643.72;692588;28;21182;-66
2021/05/17 01:00:13;;;;;;;2.00;1.45;;;;;;;11.64;64.65;99642.88;691424;28;44376;-66
2021/05/17 01:00:43;;;;;;;1.27;1.23;;;;;;;11.61;64.48;99637.91;687726;28;160095;-65
2021/05/17 01:01:06;;;;;;;1.80;1.40;;;;;;;11.60;64.54;99637.06;691468;28;43622;-66
2021/05/17 01:01:27;;;;;;;1.98;1.25;;;;;;;11.60;64.31;99641.63;690807;28;65258;-66
2021/05/17 01:01:48;;;;;;;1.38;1.27;;;;;;;11.59;64.44;99640.81;692149;28;23729;-66
2021/05/17 01:02:12;;;;;;;1.52;1.42;;;;;;;11.60;64.81;99639.78;688416;28;92797;-66
2021/05/17 01:03:08;;;;;;;1.30;1.23;;;;;;;11.59;64.48;99640.81;685295;28;62418;-66
2021/05/17 01:03:38;;;;;;;1.15;1.15;;;;;;;11.60;64.57;99644.34;682997;28;133092;-65
2021/05/17 01:04:29;;;;;;;1.48;1.40;;;;;;;11.57;64.96;99642.06;680346;28;137490;-66
2021/05/17 01:04:50;;;;;;;1.48;1.30;;;;;;;11.57;64.94;99636.66;688775;28;20921;-66
2021/05/17 01:05:14;;;;;;;2.10;1.30;;;;;;;11.56;64.93;99641.22;693787;28;13786;-66
2021/05/17 01:05:39;;;;;;;1.20;1.10;;;;;;;11.56;64.62;99635.00;690901;28;15032;-65
2021/05/17 01:06:01;;;;;;;1.30;1.30;;;;;;;11.57;64.67;99631.25;689636;28;46563;-66
2021/05/17 01:06:25;;;;;;;1.48;1.40;;;;;;;11.56;64.61;99632.31;687733;28;92279;-66
2021/05/17 01:06:51;;;;;;;1.15;1.15;;;;;;;11.53;64.88;99634.38;684699;28;46401;-66
2021/05/17 01:07:13;;;;;;;1.30;1.30;;;;;;;11.53;65.04;99638.94;681450;28;138014;-65
2021/05/17 01:07:36;;;;;;;1.40;1.30;;;;;;;11.53;65.10;99630.84;687765;28;45034;-66
2021/05/17 01:08:01;;;;;;;1.30;1.30;;;;;;;11.52;64.64;99640.00;685946;28;92321;-66
2021/05/17 01:08:23;;;;;;;1.33;1.23;;;;;;;11.52;65.02;99637.31;685669;28;91968;-66
2021/05/17 01:08:47;;;;;;;1.20;1.20;;;;;;;11.50;64.82;99632.09;690568;28;68512;-66
2021/05/17 01:09:09;;;;;;;1.20;1.10;;;;;;;11.50;65.19;99628.56;691842;28;60099;-66
2021/05/17 01:09:35;;;;;;;1.20;1.20;;;;;;;11.46;64.75;99625.44;689492;28;108081;-66
2021/05/17 01:09:58;;;;;;;1.55;1.38;;;;;;;11.47;64.86;99632.53;690133;28;64239;-65
2021/05/17 01:10:21;;;;;;;1.20;1.20;;;;;;;11.47;64.90;99629.81;689649;28;56537;-66
2021/05/17 01:10:44;;;;;;;1.20;1.20;;;;;;;11.47;64.75;99627.13;687448;28;36779;-66
2021/05/17 01:11:07;;;;;;;1.20;1.20;;;;;;;11.47;65.07;99637.09;686789;28;1030;-66
2021/05/17 01:11:29;;;;;;;1.17;1.17;;;;;;;11.46;65.09;99633.56;683249;28;28539;-66
2021/05/17 01:11:52;;;;;;;1.40;1.40;;;;;;;11.45;65.17;99634.59;684281;28;44563;-66
2021/05/17 01:12:15;;;;;;;1.30;1.30;;;;;;;11.44;64.77;99635.66;684156;28;68372;-65
2021/05/17 01:12:36;;;;;;;1.25;1.25;;;;;;;11.44;64.81;99630.25;686241;28;66928;-66
2021/05/17 01:12:59;;;;;;;1.40;1.10;;;;;;;11.44;64.99;99632.09;688301;28;68382;-65
2021/05/17 01:13:22;;;;;;;1.20;1.20;;;;;;;11.42;64.86;99637.72;690662;28;45252;-66
2021/05/17 01:13:44;;;;;;;1.27;1.25;;;;;;;11.41;65.32;99632.50;693148;28;22412;-65
2021/05/17 01:14:06;;;;;;;1.35;1.25;;;;;;;11.40;65.30;99628.16;690671;28;69429;-65
2021/05/17 01:14:29;;;;;;;1.60;1.30;;;;;;;11.39;65.12;99631.91;688766;28;90364;-66
2021/05/17 01:14:55;;;;;;;1.30;1.20;;;;;;;11.38;64.96;99632.94;690482;28;22432;-66
2021/05/17 01:15:19;;;;;;;1.17;1.17;;;;;;;11.36;65.29;99635.84;685828;28;138031;-65
2021/05/17 01:15:40;;;;;;;1.42;1.33;;;;;;;11.35;65.17;99636.91;690669;28;69440;-67
2021/05/17 01:16:02;;;;;;;1.92;1.30;;;;;;;11.34;65.02;99629.81;691360;28;46384;-65
2021/05/17 01:16:26;;;;;;;1.65;1.30;;;;;;;11.32;65.06;99626.50;690560;28;69172;-65
2021/05/17 01:16:47;;;;;;;1.13;1.10;;;;;;;11.30;64.98;99625.88;688713;28;46393;-65
2021/05/17 01:17:13;;;;;;;1.30;1.20;;;;;;;11.29;65.32;99632.34;686791;28;123397;-65
2021/05/17 01:17:36;;;;;;;1.20;1.20;;;;;;;11.28;65.38;99628.78;689107;28;70396;-65
2021/05/17 01:17:58;;;;;;;1.27;1.27;;;;;;;11.27;65.16;99632.53;690058;28;46489;-66
2021/05/17 01:18:20;;;;;;;1.25;1.25;;;;;;;11.28;65.39;99636.06;690357;28;36825;-66
2021/05/17 01:18:42;;;;;;;1.25;1.25;;;;;;;11.28;65.33;99633.38;689958;28;46390;-66
2021/05/17 01:19:05;;;;;;;1.40;1.40;;;;;;;11.28;65.70;99627.97;692316;28;66112;-66
2021/05/17 01:19:33;;;;;;;1.90;1.30;;;;;;;11.25;65.25;99631.91;689470;28;90297;-65
2021/05/17 01:20:02;;;;;;;1.85;1.58;;;;;;;11.23;65.44;99633.16;688100;28;137002;-65
2021/05/17 01:20:33;;;;;;;1.20;1.20;;;;;;;11.23;65.85;99633.16;685354;28;137536;-66
2021/05/17 01:20:55;;;;;;;1.45;1.35;;;;;;;11.23;65.87;99633.16;682829;28;137933;-66
2021/05/17 01:21:18;;;;;;;1.40;1.30;;;;;;;11.22;65.30;99635.00;686210;28;64306;-66
2021/05/17 01:21:41;;;;;;;1.50;1.30;;;;;;;11.22;65.37;99636.91;686264;28;46019;-66
2021/05/17 01:22:09;;;;;;;1.50;1.40;;;;;;;11.19;65.57;99630.06;685986;28;93146;-66
2021/05/17 01:22:38;;;;;;;1.10;1.10;;;;;;;11.22;65.85;99636.91;686833;28;138997;-65
2021/05/17 01:23:19;;;;;;;1.50;1.40;;;;;;;11.18;65.95;99633.78;689462;28;137947;-65
2021/05/17 01:23:45;;;;;;;1.30;1.30;;;;;;;11.16;65.99;99633.19;689617;28;137120;-65
2021/05/17 01:24:08;;;;;;;1.50;1.40;;;;;;;11.16;65.94;99627.78;686029;28;127478;-65
2021/05/17 01:24:29;;;;;;;1.60;1.50;;;;;;;11.16;65.54;99627.78;688778;28;44418;-66
2021/05/17 01:24:51;;;;;;;1.40;1.30;;;;;;;11.16;66.08;99628.59;687801;28;47294;-66
2021/05/17 01:25:15;;;;;;;2.88;1.15;;;;;;;11.16;65.61;99634.00;688510;28;45417;-66
2021/05/17 01:25:36;;;;;;;2.38;1.30;;;;;;;11.17;65.97;99634.81;687898;28;69505;-65
2021/05/17 01:26:00;;;;;;;1.20;1.20;;;;;;;11.20;65.72;99628.19;687743;28;46331;-65
2021/05/17 01:26:23;;;;;;;1.33;1.33;;;;;;;11.18;66.01;99629.19;688673;28;82276;-65
2021/05/17 01:26:44;;;;;;;2.40;1.40;;;;;;;11.21;65.86;99630.66;688987;28;60395;-65
2021/05/17 01:27:06;;;;;;;2.47;1.15;;;;;;;11.23;65.66;99630.47;691430;28;23516;-65
2021/05/17 01:27:27;;;;;;;1.38;1.30;;;;;;;11.21;65.67;99633.38;690219;28;31068;-65
2021/05/17 01:27:49;;;;;;;1.38;1.27;;;;;;;11.22;65.56;99635.00;690390;28;46423;-66
2021/05/17 01:28:12;;;;;;;1.33;1.30;;;;;;;11.23;65.43;99633.16;690866;28;23547;-66
2021/05/17 01:28:33;;;;;;;1.40;1.40;;;;;;;11.25;65.76;99631.06;689655;28;65297;-65
2021/05/17 01:28:57;;;;;;;1.48;1.38;;;;;;;11.24;65.92;99634.81;691175;28;15159;-66
2021/05/17 01:29:19;;;;;;;1.60;1.45;;;;;;;11.26;66.01;99635.44;687640;28;93130;-65
2021/05/17 01:29:41;;;;;;;1.75;1.40;;;;;;;11.27;65.71;99632.53;690068;28;45228;-65
2021/05/17 01:30:04;;;;;;;1.67;1.40;;;;;;;11.28;65.48;99634.19;689620;28;32439;-66
2021/05/17 01:30:34;;;;;;;1.50;1.40;;;;;;;11.30;65.34;99642.09;686837;28;60382;-66
2021/05/17 01:30:59;;;;;;;1.30;1.30;;;;;;;11.29;65.60;99632.34;691065;28;14827;-66
2021/05/17 01:31:20;;;;;;;1.30;1.20;;;;;;;11.27;65.49;99629.84;689840;28;52593;-66
2021/05/17 01:31:42;;;;;;;1.63;1.50;;;;;;;11.28;65.38;99631.47;690085;28;22435;-66
2021/05/17 01:32:04;;;;;;;1.30;1.30;;;;;;;11.29;65.68;99635.03;688752;28;44422;-65
2021/05/17 01:32:27;;;;;;;1.48;1.40;;;;;;;11.29;65.25;99635.84;687973;28;70238;-66
2021/05/17 01:32:51;;;;;;;1.40;1.30;;;;;;;11.28;65.25;99633.38;687736;28;44001;-66
2021/05/17 01:33:13;;;;;;;1.35;1.30;;;;;;;11.27;65.35;99629.84;683690;28;89327;-65
2021/05/17 01:33:36;;;;;;;1.30;1.30;;;;;;;11.28;65.67;99628.78;684868;28;45287;-65
2021/05/17 01:33:58;;;;;;;1.20;1.20;;;;;;;11.28;65.48;99630.66;683800;28;56965;-65
2021/05/17 01:34:19;;;;;;;1.48;1.38;;;;;;;11.27;65.18;99632.53;686663;28;37888;-65
2021/05/17 01:34:42;;;;;;;1.30;1.30;;;;;;;11.28;65.53;99636.88;688303;28;22416;-66
2021/05/17 01:35:04;;;;;;;1.90;1.30;;;;;;;11.29;65.46;99630.44;687028;28;65984;-66
2021/05/17 01:35:26;;;;;;;1.63;1.13;;;;;;;11.31;65.58;99632.94;689739;28;45142;-66
2021/05/17 01:35:48;;;;;;;1.25;1.25;;;;;;;11.31;65.72;99631.06;690172;28;46437;-66
2021/05/17 01:36:12;;;;;;;1.42;1.40;;;;;;;11.31;65.49;99638.34;689016;28;46206;-66
2021/05/17 01:36:36;;;;;;;1.38;1.27;;;;;;;11.31;65.44;99633.75;685560;28;116116;-66
2021/05/17 01:37:00;;;;;;;1.27;1.27;;;;;;;11.32;65.45;99629.22;687596;28;70189;-66
2021/05/17 01:37:22;;;;;;;1.80;1.30;;;;;;;11.32;65.39;99635.44;689555;28;72964;-66
2021/05/17 01:37:44;;;;;;;1.75;1.40;;;;;;;11.31;65.81;99641.06;690910;28;64837;-65
2021/05/17 01:38:07;;;;;;;1.55;1.45;;;;;;;11.31;65.54;99635.66;691830;28;34749;-65
2021/05/17 01:38:28;;;;;;;1.50;1.40;;;;;;;11.29;65.66;99643.16;689823;28;68415;-66
2021/05/17 01:38:52;;;;;;;1.35;1.33;;;;;;;11.30;65.60;99637.53;692190;28;19505;-66
2021/05/17 01:39:15;;;;;;;1.30;1.30;;;;;;;11.28;65.78;99636.88;688398;28;136546;-66
2021/05/17 01:39:37;;;;;;;1.50;1.40;;;;;;;11.27;65.80;99637.94;690211;28;45260;-65
2021/05/17 01:40:00;;;;;;;2.10;1.40;;;;;;;11.25;65.72;99634.59;690445;28;67499;-66
2021/05/17 01:40:22;;;;;;;1.98;1.40;;;;;;;11.27;65.73;99642.50;691190;28;46419;-65
2021/05/17 01:40:47;;;;;;;1.40;1.30;;;;;;;11.27;65.74;99639.78;687177;28;116512;-65
2021/05/17 01:41:10;;;;;;;1.35;1.35;;;;;;;11.26;65.85;99638.16;687182;28;46432;-66
2021/05/17 01:41:35;;;;;;;1.42;1.33;;;;;;;11.25;65.88;99645.41;685403;28;90349;-66
2021/05/17 01:41:58;;;;;;;2.22;1.30;;;;;;;11.25;65.65;99641.88;684242;28;92323;-65
2021/05/17 01:42:20;;;;;;;2.03;1.15;;;;;;;11.23;65.80;99639.41;685303;28;69398;-65
2021/05/17 01:42:42;;;;;;;1.30;1.20;;;;;;;11.22;65.53;99645.00;684917;28;67518;-65
2021/05/17 01:43:03;;;;;;;1.35;1.30;;;;;;;11.21;65.80;99640.63;687258;28;46321;-65
2021/05/17 01:43:25;;;;;;;1.40;1.40;;;;;;;11.18;65.95;99636.50;689139;28;23758;-66
2021/05/17 01:43:48;;;;;;;1.55;1.40;;;;;;;11.21;65.93;99646.03;687743;28;7071;-66
2021/05/17 01:44:11;;;;;;;1.63;1.40;;;;;;;11.18;65.62;99645.41;685029;28;116192;-65
2021/05/17 01:44:36;;;;;;;1.30;1.30;;;;;;;11.20;65.89;99638.97;686342;28;69648;-65
2021/05/17 01:44:58;;;;;;;1.55;1.45;;;;;;;11.22;66.10;99642.31;680477;28;114829;-65
2021/05/17 01:45:32;;;;;;;2.13;1.50;;;;;;;11.20;65.88;99644.38;683303;28;138328;-66
2021/05/17 01:45:53;;;;;;;1.70;1.52;;;;;;;11.18;65.64;99645.41;687746;28;70284;-66
2021/05/17 01:46:16;;;;;;;1.20;1.20;;;;;;;11.19;66.02;99643.56;686841;28;14299;-65
2021/05/17 01:46:39;;;;;;;1.40;1.40;;;;;;;11.18;66.04;99642.72;684484;28;92371;-66
2021/05/17 01:47:08;;;;;;;1.90;1.30;;;;;;;11.19;66.07;99640.88;685253;28;137985;-66
2021/05/17 01:47:30;;;;;;;1.35;1.30;;;;;;;11.20;65.80;99641.69;691115;28;16525;-66
2021/05/17 01:47:52;;;;;;;1.50;1.50;;;;;;;11.19;65.99;99640.88;689190;28;1026;-66
2021/05/17 01:48:14;;;;;;;1.65;1.55;;;;;;;11.21;65.76;99648.72;689430;28;46164;-66
2021/05/17 01:48:38;;;;;;;1.40;1.30;;;;;;;11.18;65.93;99648.13;688645;28;45341;-66